createdAt,value
2023-04-15T00:00:53.286Z,9.000
2023-04-15T00:01:47.371Z,9.000
2023-04-15T00:02:31.369Z,9.000
2023-04-15T00:03:33.163Z,8.900
2023-04-15T00:04:25.983Z,9.000
2023-04-15T00:05:36.092Z,9.000
2023-04-15T00:06:27.332Z,9.000
2023-04-15T00:07:21.848Z,9.000
2023-04-15T00:08:37.178Z,9.000
2023-04-15T00:09:45.522Z,9.000
2023-04-15T00:10:36.850Z,9.000
2023-04-15T00:11:29.876Z,9.000
2023-04-15T00:12:22.072Z,9.000
2023-04-15T00:13:27.033Z,9.000
2023-04-15T00:14:25.760Z,9.000
2023-04-15T00:15:55.604Z,9.000
2023-04-15T00:17:41.167Z,9.000
2023-04-15T00:18:32.683Z,9.000
2023-04-15T00:19:27.342Z,9.000
2023-04-15T00:20:36.049Z,9.000
2023-04-15T00:21:28.263Z,9.000
2023-04-15T00:22:21.304Z,9.000
2023-04-15T00:23:52.156Z,9.000
2023-04-15T00:24:25.044Z,9.000
2023-04-15T00:25:39.065Z,9.000
2023-04-15T00:26:31.845Z,9.000
2023-04-15T00:27:24.937Z,9.000
2023-04-15T00:28:33.233Z,9.000
2023-04-15T00:29:25.776Z,9.000
2023-04-15T00:30:28.886Z,9.000
2023-04-15T00:31:44.458Z,9.100
2023-04-15T00:32:44.159Z,9.100
2023-04-15T00:33:35.567Z,9.000
2023-04-15T00:34:27.749Z,9.000
2023-04-15T00:35:20.854Z,9.000
2023-04-15T00:36:29.677Z,9.000
2023-04-15T00:37:22.626Z,9.100
2023-04-15T00:38:53.375Z,9.000
2023-04-15T00:39:46.005Z,9.000
2023-04-15T00:40:40.299Z,9.000
2023-04-15T00:41:26.590Z,9.000
2023-04-15T00:42:25.884Z,9.100
2023-04-15T00:43:33.216Z,9.100
2023-04-15T00:44:27.837Z,9.100
2023-04-15T00:45:58.037Z,9.100
2023-04-15T00:46:50.836Z,9.100
2023-04-15T00:47:33.003Z,9.100
2023-04-15T00:48:36.632Z,9.100
2023-04-15T00:49:29.836Z,9.100
2023-04-15T00:50:23.626Z,9.100
2023-04-15T00:51:30.266Z,9.100
2023-04-15T00:53:01.478Z,9.100
2023-04-15T00:53:37.307Z,9.100
2023-04-15T00:54:50.484Z,9.100
2023-04-15T00:55:41.431Z,9.100
2023-04-15T00:56:34.472Z,9.200
2023-04-15T00:57:25.750Z,9.200
2023-04-15T00:58:28.729Z,9.200
2023-04-15T00:59:27.304Z,9.200
2023-04-15T01:00:23.095Z,9.200
2023-04-15T01:01:59.104Z,9.200
2023-04-15T01:02:52.212Z,9.200
2023-04-15T01:03:21.387Z,9.200
2023-04-15T01:08:59.871Z,9.100
2023-04-15T01:09:25.106Z,9.100
2023-04-15T01:10:40.477Z,9.100
2023-04-15T01:11:36.820Z,9.100
2023-04-15T01:13:11.829Z,9.100
2023-04-15T01:13:28.896Z,9.100
2023-04-15T01:14:28.730Z,9.100
2023-04-15T01:20:26.270Z,9.100
2023-04-15T01:22:25.495Z,9.100
2023-04-15T01:23:58.132Z,9.100
2023-04-15T01:24:51.111Z,9.100
2023-04-15T01:25:43.491Z,9.100
2023-04-15T01:26:28.837Z,9.100
2023-04-15T01:27:30.357Z,9.100
2023-04-15T01:28:21.347Z,9.100
2023-04-15T01:29:31.679Z,9.100
2023-04-15T01:30:22.378Z,9.100
2023-04-15T01:31:55.568Z,9.100
2023-04-15T01:32:33.492Z,9.100
2023-04-15T01:33:39.557Z,9.100
2023-04-15T01:34:35.977Z,9.100
2023-04-15T01:35:27.416Z,9.100
2023-04-15T01:36:33.557Z,9.100
2023-04-15T01:37:26.064Z,9.100
2023-04-15T01:38:38.724Z,9.100
2023-04-15T01:39:52.201Z,9.100
2023-04-15T01:41:38.014Z,9.100
2023-04-15T01:42:30.254Z,9.100
2023-04-15T01:43:24.700Z,9.100
2023-04-15T01:44:30.263Z,9.100
2023-04-15T01:45:23.461Z,9.100
2023-04-15T01:46:56.525Z,9.100
2023-04-15T01:47:49.756Z,9.100
2023-04-15T01:48:22.602Z,9.100
2023-04-15T01:49:35.246Z,9.100
2023-04-15T01:51:21.342Z,9.100
2023-04-15T01:52:27.269Z,9.100
2023-04-15T01:53:20.296Z,9.100
2023-04-15T01:54:25.856Z,9.100
2023-04-15T01:55:40.236Z,9.100
2023-04-15T01:57:33.204Z,9.100
2023-04-15T01:58:24.751Z,9.100
2023-04-15T01:59:31.486Z,9.100
2023-04-15T02:00:24.118Z,9.100
2023-04-15T02:01:46.005Z,9.100
2023-04-15T02:02:49.651Z,9.100
2023-04-15T02:03:43.870Z,9.100
2023-04-15T02:04:36.904Z,9.100
2023-04-15T02:05:25.330Z,9.100
2023-04-15T02:06:23.121Z,9.100
2023-04-15T02:07:27.797Z,9.100
2023-04-15T02:08:21.457Z,9.100
2023-04-15T02:09:55.374Z,9.100
2023-04-15T02:10:48.040Z,9.100
2023-04-15T02:11:29.344Z,9.100
2023-04-15T02:12:33.998Z,9.100
2023-04-15T02:13:26.919Z,9.100
2023-04-15T02:14:33.071Z,9.100
2023-04-15T02:15:25.039Z,9.100
2023-04-15T02:16:19.879Z,9.100
2023-04-15T02:17:34.993Z,9.100
2023-04-15T02:18:46.935Z,9.100
2023-04-15T02:19:38.323Z,9.100
2023-04-15T02:20:30.442Z,9.100
2023-04-15T02:21:22.651Z,9.100
2023-04-15T02:22:24.804Z,9.100
2023-04-15T02:23:22.103Z,9.100
2023-04-15T02:24:52.735Z,9.100
2023-04-15T02:25:53.598Z,9.100
2023-04-15T02:26:42.120Z,9.100
2023-04-15T02:27:34.037Z,9.100
2023-04-15T02:28:31.414Z,9.100
2023-04-15T02:29:21.447Z,9.100
2023-04-15T02:30:26.290Z,9.000
2023-04-15T02:32:00.342Z,9.000
2023-04-15T02:32:53.208Z,9.050
2023-04-15T02:33:21.928Z,9.000
2023-04-15T02:34:35.956Z,9.000
2023-04-15T02:35:32.935Z,9.000
2023-04-15T02:36:26.514Z,9.100
2023-04-15T02:37:31.758Z,9.000
2023-04-15T02:39:26.875Z,9.000
2023-04-15T02:40:42.608Z,9.000
2023-04-15T02:41:44.559Z,9.000
2023-04-15T02:42:37.612Z,9.000
2023-04-15T02:43:28.478Z,9.000
2023-04-15T02:44:23.742Z,9.100
2023-04-15T02:45:27.374Z,9.000
2023-04-15T02:46:19.817Z,9.000
2023-04-15T02:47:55.315Z,9.000
2023-04-15T02:48:48.201Z,9.000
2023-04-15T02:49:43.449Z,9.100
2023-04-15T02:50:25.624Z,9.000
2023-04-15T02:51:27.482Z,9.000
2023-04-15T02:52:31.225Z,9.000
2023-04-15T02:53:25.821Z,9.000
2023-04-15T02:54:59.824Z,9.000
2023-04-15T02:55:52.765Z,9.000
2023-04-15T02:56:29.564Z,9.000
2023-04-15T02:57:38.496Z,9.000
2023-04-15T02:58:31.373Z,9.000
2023-04-15T02:59:24.545Z,9.000
2023-04-15T03:00:28.288Z,9.000
2023-04-15T03:01:21.902Z,9.000
2023-04-15T03:02:35.396Z,9.000
2023-04-15T03:03:49.632Z,9.000
2023-04-15T03:05:35.331Z,9.000
2023-04-15T03:06:26.978Z,9.000
2023-04-15T03:07:21.225Z,9.000
2023-04-15T03:08:25.331Z,9.000
2023-04-15T03:09:53.081Z,9.000
2023-04-15T03:10:54.046Z,9.000
2023-04-15T03:11:46.381Z,8.900
2023-04-15T03:12:38.067Z,8.900
2023-04-15T03:13:32.999Z,8.900
2023-04-15T03:15:29.685Z,8.900
2023-04-15T03:16:22.644Z,8.900
2023-04-15T03:17:57.802Z,8.900
2023-04-15T03:18:22.998Z,8.900
2023-04-15T03:20:36.552Z,8.900
2023-04-15T03:21:30.502Z,8.900
2023-04-15T03:22:21.752Z,9.000
2023-04-15T03:23:25.792Z,8.900
2023-04-15T03:24:28.501Z,8.900
2023-04-15T03:25:42.883Z,8.900
2023-04-15T03:26:47.088Z,8.900
2023-04-15T03:27:41.561Z,8.900
2023-04-15T03:28:35.318Z,8.800
2023-04-15T03:29:21.310Z,8.900
2023-04-15T03:31:23.811Z,8.800
2023-04-15T03:33:00.691Z,8.800
2023-04-15T03:33:52.332Z,8.900
2023-04-15T03:34:45.810Z,8.800
2023-04-15T03:35:26.832Z,8.800
2023-04-15T03:36:32.116Z,8.800
2023-04-15T03:37:24.668Z,8.800
2023-04-15T03:38:28.096Z,8.800
2023-04-15T03:39:19.939Z,8.800
2023-04-15T03:40:56.448Z,8.850
2023-04-15T03:41:31.364Z,8.900
2023-04-15T03:42:43.984Z,8.900
2023-04-15T03:43:34.927Z,8.900
2023-04-15T03:44:28.212Z,8.800
2023-04-15T03:45:20.235Z,8.800
2023-04-15T03:46:24.446Z,8.800
2023-04-15T03:47:35.474Z,8.800
2023-04-15T03:48:50.672Z,8.800
2023-04-15T03:49:46.578Z,8.900
2023-04-15T03:50:39.692Z,8.800
2023-04-15T03:51:30.848Z,8.800
2023-04-15T03:52:29.359Z,8.800
2023-04-15T03:53:28.364Z,8.900
2023-04-15T03:54:20.961Z,8.800
2023-04-15T03:55:56.344Z,8.800
2023-04-15T03:56:50.390Z,8.800
2023-04-15T03:57:42.311Z,8.800
2023-04-15T03:58:33.754Z,8.800
2023-04-15T03:59:28.971Z,8.800
2023-04-15T04:00:33.947Z,8.800
2023-04-15T04:03:02.989Z,8.800
2023-04-15T04:03:23.742Z,8.800
2023-04-15T04:04:39.575Z,8.800
2023-04-15T04:05:43.933Z,8.800
2023-04-15T04:06:32.223Z,8.800
2023-04-15T04:07:26.133Z,8.800
2023-04-15T04:08:29.629Z,8.800
2023-04-15T04:09:21.857Z,8.800
2023-04-15T04:10:43.497Z,8.800
2023-04-15T04:11:52.162Z,8.700
2023-04-15T04:12:45.516Z,8.700
2023-04-15T04:13:38.973Z,8.700
2023-04-15T04:14:22.408Z,8.700
2023-04-15T04:15:24.206Z,8.700
2023-04-15T04:16:27.037Z,8.700
2023-04-15T04:18:01.130Z,8.700
2023-04-15T04:18:56.090Z,8.700
2023-04-15T04:19:49.108Z,8.700
2023-04-15T04:20:26.780Z,8.700
2023-04-15T04:21:35.944Z,8.700
2023-04-15T04:22:28.892Z,8.700
2023-04-15T04:23:22.176Z,8.700
2023-04-15T04:24:23.272Z,8.700
2023-04-15T04:26:00.704Z,8.700
2023-04-15T04:26:32.825Z,8.700
2023-04-15T04:27:46.619Z,8.700
2023-04-15T04:29:32.703Z,8.700
2023-04-15T04:30:24.454Z,8.700
2023-04-15T04:31:22.816Z,8.700
2023-04-15T04:32:20.053Z,8.700
2023-04-15T04:33:50.521Z,8.700
2023-04-15T04:34:51.928Z,8.700
2023-04-15T04:35:44.876Z,8.700
2023-04-15T04:36:36.091Z,8.700
2023-04-15T04:37:30.718Z,8.700
2023-04-15T04:39:24.129Z,8.700
2023-04-15T04:41:01.805Z,8.700
2023-04-15T04:42:05.193Z,8.700
2023-04-15T04:43:34.633Z,8.700
2023-04-15T04:44:33.572Z,8.700
2023-04-15T04:45:26.781Z,8.700
2023-04-15T04:46:29.739Z,8.700
2023-04-15T04:47:21.129Z,8.700
2023-04-15T04:48:24.551Z,8.700
2023-04-15T04:49:39.233Z,8.700
2023-04-15T04:50:45.488Z,8.700
2023-04-15T04:51:38.164Z,8.700
2023-04-15T04:52:31.429Z,8.700
2023-04-15T04:53:22.945Z,8.700
2023-04-15T04:54:25.564Z,8.700
2023-04-15T04:56:03.670Z,8.700
2023-04-15T04:56:57.511Z,8.700
2023-04-15T04:57:50.790Z,8.700
2023-04-15T04:58:44.430Z,8.700
2023-04-15T04:59:22.811Z,8.700
2023-04-15T05:00:28.400Z,8.700
2023-04-15T05:01:22.486Z,8.700
2023-04-15T05:02:22.070Z,8.700
2023-04-15T05:04:00.675Z,8.700
2023-04-15T05:05:02.571Z,8.700
2023-04-15T05:06:40.949Z,8.700
2023-04-15T05:07:33.210Z,8.700
2023-04-15T05:08:26.141Z,8.700
2023-04-15T05:09:26.094Z,8.700
2023-04-15T05:11:04.916Z,8.700
2023-04-15T05:11:31.680Z,8.700
2023-04-15T05:12:46.701Z,8.800
2023-04-15T05:13:44.482Z,8.700
2023-04-15T05:14:36.795Z,8.700
2023-04-15T05:15:28.394Z,8.700
2023-04-15T05:16:24.860Z,8.800
2023-04-15T05:17:23.676Z,8.800
2023-04-15T05:18:51.279Z,8.800
2023-04-15T05:19:55.253Z,8.800
2023-04-15T05:20:48.372Z,8.800
2023-04-15T05:21:41.339Z,8.800
2023-04-15T05:22:30.560Z,8.800
2023-04-15T05:23:35.906Z,8.800
2023-04-15T05:25:20.308Z,8.800
2023-04-15T05:26:59.457Z,8.800
2023-04-15T05:27:20.894Z,8.800
2023-04-15T05:28:34.916Z,8.800
2023-04-15T05:29:37.828Z,8.800
2023-04-15T05:30:31.427Z,8.800
2023-04-15T05:31:23.771Z,8.800
2023-04-15T05:33:10.714Z,8.900
2023-04-15T05:34:40.624Z,8.900
2023-04-15T05:35:49.267Z,8.900
2023-04-15T05:36:42.474Z,9.000
2023-04-15T05:37:35.543Z,9.000
2023-04-15T05:38:26.777Z,9.000
2023-04-15T05:39:32.157Z,9.000
2023-04-15T05:42:00.154Z,9.000
2023-04-15T05:42:53.052Z,8.900
2023-04-15T05:43:45.789Z,8.800
2023-04-15T05:44:24.292Z,8.700
2023-04-15T05:45:32.883Z,8.700
2023-04-15T05:46:26.402Z,8.700
2023-04-15T05:47:24.913Z,8.700
2023-04-15T05:49:05.640Z,8.700
2023-04-15T05:49:57.385Z,8.600
2023-04-15T05:50:29.033Z,8.600
2023-04-15T05:51:44.516Z,8.500
2023-04-15T05:53:30.615Z,8.500
2023-04-15T05:54:21.476Z,8.500
2023-04-15T05:55:22.045Z,8.500
2023-04-15T05:56:32.258Z,8.500
2023-04-15T05:57:46.911Z,8.500
2023-04-15T05:58:47.884Z,8.500
2023-04-15T05:59:40.752Z,8.500
2023-04-15T06:00:33.067Z,8.500
2023-04-15T06:01:26.972Z,8.500
2023-04-15T06:03:51.932Z,8.500
2023-04-15T06:05:06.830Z,8.450
2023-04-15T06:06:45.725Z,8.500
2023-04-15T06:07:30.285Z,8.500
2023-04-15T06:08:31.638Z,8.500
2023-04-15T06:09:25.317Z,8.500
2023-04-15T06:10:23.617Z,8.500
2023-04-15T06:12:03.042Z,8.500
2023-04-15T06:12:21.179Z,8.500
2023-04-15T06:13:36.240Z,8.500
2023-04-15T06:14:41.822Z,8.500
2023-04-15T06:15:35.169Z,8.500
2023-04-15T06:16:28.746Z,8.500
2023-04-15T06:17:19.721Z,8.500
2023-04-15T06:18:20.027Z,8.500
2023-04-15T06:20:01.245Z,8.500
2023-04-15T06:20:53.416Z,8.550
2023-04-15T06:21:47.263Z,8.600
2023-04-15T06:22:40.031Z,8.600
2023-04-15T06:23:31.037Z,8.600
2023-04-15T06:24:25.319Z,8.600
2023-04-15T06:25:24.180Z,8.600
2023-04-15T06:27:00.091Z,8.600
2023-04-15T06:27:57.469Z,8.600
2023-04-15T06:28:50.285Z,8.600
2023-04-15T06:29:25.518Z,8.600
2023-04-15T06:30:38.395Z,8.600
2023-04-15T06:31:28.846Z,8.600
2023-04-15T06:32:23.084Z,8.600
2023-04-15T06:33:20.916Z,8.600
2023-04-15T06:35:02.517Z,8.500
2023-04-15T06:35:29.432Z,8.500
2023-04-15T06:36:45.955Z,8.600
2023-04-15T06:37:40.853Z,8.600
2023-04-15T06:38:33.483Z,8.600
2023-04-15T06:39:25.674Z,8.600
2023-04-15T06:40:23.715Z,8.600
2023-04-15T06:41:34.367Z,8.600
2023-04-15T06:42:47.516Z,8.500
2023-04-15T06:43:51.643Z,8.600
2023-04-15T06:44:51.124Z,8.600
2023-04-15T06:48:21.688Z,8.700
2023-04-15T06:50:04.194Z,8.700
2023-04-15T06:50:55.799Z,8.800
2023-04-15T06:51:50.053Z,8.800
2023-04-15T06:52:32.717Z,8.900
2023-04-15T06:53:34.890Z,8.900
2023-04-15T06:54:28.576Z,8.900
2023-04-15T06:55:20.861Z,8.900
2023-04-15T06:57:08.475Z,9.100
2023-04-15T06:58:36.375Z,9.200
2023-04-15T06:59:47.345Z,9.200
2023-04-15T07:00:40.753Z,9.200
2023-04-15T07:01:33.589Z,9.200
2023-04-15T07:02:24.058Z,9.100
2023-04-15T07:03:23.900Z,9.100
2023-04-15T07:04:41.456Z,9.000
2023-04-15T07:05:58.317Z,9.000
2023-04-15T07:07:45.237Z,8.900
2023-04-15T07:08:21.828Z,9.000
2023-04-15T07:09:30.848Z,9.200
2023-04-15T07:10:23.964Z,9.200
2023-04-15T07:11:20.334Z,9.300
2023-04-15T07:13:03.017Z,9.300
2023-04-15T07:13:55.259Z,9.300
2023-04-15T07:14:25.825Z,9.300
2023-04-15T07:15:40.900Z,9.300
2023-04-15T07:17:27.173Z,9.300
2023-04-15T07:18:24.910Z,9.300
2023-04-15T07:20:06.735Z,9.300
2023-04-15T07:20:29.107Z,9.100
2023-04-15T07:21:44.505Z,9.100
2023-04-15T07:22:51.191Z,9.100
2023-04-15T07:24:29.875Z,9.100
2023-04-15T07:25:24.479Z,9.200
2023-04-15T07:27:49.260Z,9.200
2023-04-15T07:28:56.219Z,9.200
2023-04-15T07:29:49.294Z,9.200
2023-04-15T07:30:42.789Z,9.200
2023-04-15T07:31:27.971Z,9.100
2023-04-15T07:32:28.113Z,9.100
2023-04-15T07:33:21.077Z,9.100
2023-04-15T07:35:06.992Z,9.100
2023-04-15T07:36:52.642Z,8.900
2023-04-15T07:37:33.593Z,9.000
2023-04-15T07:38:39.753Z,9.000
2023-04-15T07:39:33.011Z,9.100
2023-04-15T07:40:25.827Z,9.100
2023-04-15T07:41:21.912Z,9.100
2023-04-15T07:42:23.600Z,9.000
2023-04-15T07:43:38.219Z,9.100
2023-04-15T07:44:50.525Z,9.100
2023-04-15T07:45:44.524Z,9.100
2023-04-15T07:46:36.979Z,9.000
2023-04-15T07:47:28.158Z,8.900
2023-04-15T07:48:22.452Z,8.900
2023-04-15T07:49:41.366Z,9.000
2023-04-15T07:50:56.879Z,9.000
2023-04-15T07:51:55.234Z,9.000
2023-04-15T07:52:48.184Z,9.000
2023-04-15T07:53:22.601Z,9.000
2023-04-15T07:54:34.774Z,9.000
2023-04-15T07:55:28.233Z,9.000
2023-04-15T07:56:23.403Z,9.000
2023-04-15T07:58:06.332Z,9.000
2023-04-15T07:58:58.601Z,9.000
2023-04-15T07:59:26.107Z,8.900
2023-04-15T08:00:39.485Z,9.000
2023-04-15T08:02:30.957Z,8.900
2023-04-15T08:03:22.654Z,9.000
2023-04-15T08:04:21.746Z,9.000
2023-04-15T08:05:30.086Z,9.000
2023-04-15T08:06:56.142Z,9.000
2023-04-15T08:07:47.726Z,9.000
2023-04-15T08:08:42.611Z,9.000
2023-04-15T08:09:35.807Z,9.000
2023-04-15T08:10:24.271Z,9.000
2023-04-15T08:11:21.034Z,9.100
2023-04-15T08:12:50.134Z,9.200
2023-04-15T08:14:05.110Z,9.200
2023-04-15T08:14:52.638Z,9.250
2023-04-15T08:15:44.830Z,9.300
2023-04-15T08:16:28.671Z,9.300
2023-04-15T08:17:32.701Z,9.300
2023-04-15T08:18:25.737Z,9.100
2023-04-15T08:19:22.181Z,9.200
2023-04-15T08:21:03.058Z,9.100
2023-04-15T08:21:19.095Z,9.050
2023-04-15T08:22:33.747Z,9.100
2023-04-15T08:23:47.634Z,9.200
2023-04-15T08:24:36.993Z,9.000
2023-04-15T08:25:29.239Z,9.200
2023-04-15T08:26:21.337Z,9.200
2023-04-15T08:27:24.196Z,9.100
2023-04-15T08:28:39.855Z,9.300
2023-04-15T08:29:54.285Z,9.300
2023-04-15T08:31:41.744Z,9.300
2023-04-15T08:32:32.168Z,9.500
2023-04-15T08:33:26.744Z,9.600
2023-04-15T08:34:23.471Z,9.600
2023-04-15T08:35:57.108Z,9.600
2023-04-15T08:36:58.901Z,9.650
2023-04-15T08:37:51.973Z,9.700
2023-04-15T08:38:22.538Z,9.700
2023-04-15T08:39:37.483Z,9.700
2023-04-15T08:41:23.742Z,9.500
2023-04-15T08:43:14.814Z,9.600
2023-04-15T08:44:26.524Z,9.450
2023-04-15T08:45:40.262Z,9.400
2023-04-15T08:46:45.189Z,9.400
2023-04-15T08:47:35.458Z,9.400
2023-04-15T08:48:26.717Z,9.300
2023-04-15T08:49:21.215Z,9.400
2023-04-15T08:50:31.094Z,9.500
2023-04-15T08:51:45.394Z,9.400
2023-04-15T08:52:58.216Z,9.400
2023-04-15T08:53:48.909Z,9.400
2023-04-15T08:54:39.198Z,9.500
2023-04-15T08:55:25.894Z,9.500
2023-04-15T08:56:28.627Z,9.500
2023-04-15T08:57:21.716Z,9.500
2023-04-15T08:59:08.548Z,9.500
2023-04-15T09:00:02.289Z,9.600
2023-04-15T09:00:53.855Z,9.700
2023-04-15T09:01:30.003Z,9.700
2023-04-15T09:02:39.837Z,9.800
2023-04-15T09:03:34.261Z,9.900
2023-04-15T09:04:26.429Z,10.000
2023-04-15T09:06:11.784Z,10.100
2023-04-15T09:07:34.717Z,10.050
2023-04-15T09:08:51.289Z,10.000
2023-04-15T09:10:38.305Z,10.100
2023-04-15T09:11:26.138Z,10.100
2023-04-15T09:12:22.313Z,10.100
2023-04-15T09:13:38.020Z,10.000
2023-04-15T09:14:53.730Z,10.050
2023-04-15T09:15:54.719Z,10.100
2023-04-15T09:16:45.516Z,10.100
2023-04-15T09:17:39.009Z,10.000
2023-04-15T09:18:33.169Z,10.100
2023-04-15T09:19:26.356Z,10.100
2023-04-15T09:20:58.383Z,10.100
2023-04-15T09:22:06.044Z,10.100
2023-04-15T09:22:57.989Z,10.150
2023-04-15T09:23:21.985Z,10.100
2023-04-15T09:24:36.696Z,10.300
2023-04-15T09:25:36.797Z,10.400
2023-04-15T09:26:30.106Z,10.300
2023-04-15T09:27:21.487Z,10.400
2023-04-15T09:29:09.846Z,10.500
2023-04-15T09:30:43.189Z,10.550
2023-04-15T09:31:49.310Z,10.600
2023-04-15T09:32:41.731Z,10.600
2023-04-15T09:33:34.896Z,10.700
2023-04-15T09:34:25.975Z,10.600
2023-04-15T09:35:32.283Z,10.800
2023-04-15T09:36:49.731Z,10.800
2023-04-15T09:37:59.861Z,10.700
2023-04-15T09:38:52.828Z,10.700
2023-04-15T09:39:46.350Z,10.600
2023-04-15T09:40:26.341Z,10.600
2023-04-15T09:41:30.165Z,10.600
2023-04-15T09:42:25.302Z,10.600
2023-04-15T09:44:05.895Z,10.700
2023-04-15T09:45:03.848Z,10.700
2023-04-15T09:45:56.300Z,10.700
2023-04-15T09:46:30.703Z,10.700
2023-04-15T09:47:43.632Z,10.800
2023-04-15T09:48:35.511Z,10.700
2023-04-15T09:49:28.953Z,10.800
2023-04-15T09:50:19.964Z,10.800
2023-04-15T09:51:21.557Z,10.800
2023-04-15T09:52:34.806Z,10.750
2023-04-15T09:53:48.370Z,10.800
2023-04-15T09:54:46.082Z,10.800
2023-04-15T09:55:39.470Z,10.800
2023-04-15T09:56:30.537Z,10.900
2023-04-15T09:57:29.365Z,10.800
2023-04-15T09:58:38.946Z,10.800
2023-04-15T09:59:53.037Z,10.700
2023-04-15T10:00:57.150Z,10.500
2023-04-15T10:01:50.682Z,10.600
2023-04-15T10:03:36.251Z,10.500
2023-04-15T10:05:21.879Z,10.700
2023-04-15T10:07:07.729Z,10.600
2023-04-15T10:08:23.508Z,10.550
2023-04-15T10:09:38.038Z,10.600
2023-04-15T10:10:40.573Z,10.500
2023-04-15T10:11:34.761Z,10.400
2023-04-15T10:12:25.000Z,10.500
2023-04-15T10:14:13.329Z,10.500
2023-04-15T10:15:42.517Z,10.500
2023-04-15T10:16:51.834Z,10.500
2023-04-15T10:17:44.755Z,10.700
2023-04-15T10:18:36.418Z,10.700
2023-04-15T10:19:21.636Z,10.700
2023-04-15T10:20:23.362Z,10.800
2023-04-15T10:21:47.709Z,10.900
2023-04-15T10:23:02.668Z,11.000
2023-04-15T10:24:48.679Z,11.100
2023-04-15T10:25:26.454Z,11.100
2023-04-15T10:26:35.152Z,10.900
2023-04-15T10:27:27.534Z,10.900
2023-04-15T10:29:05.924Z,10.900
2023-04-15T10:30:06.251Z,10.800
2023-04-15T10:30:59.112Z,10.750
2023-04-15T10:31:31.438Z,10.800
2023-04-15T10:32:43.900Z,10.700
2023-04-15T10:55:42.808Z,10.800
2023-04-15T11:00:45.523Z,10.900
2023-04-15T11:01:57.044Z,11.000
2023-04-15T11:05:26.329Z,11.100
2023-04-15T11:08:01.553Z,11.100
2023-04-15T11:08:57.266Z,11.050
2023-04-15T11:11:40.185Z,11.300
2023-04-15T11:15:10.115Z,11.500
2023-04-15T11:16:30.943Z,11.600
2023-04-15T11:17:50.037Z,11.500
2023-04-15T11:22:35.959Z,11.400
2023-04-15T11:23:50.022Z,11.300
2023-04-15T11:24:50.948Z,11.250
2023-04-15T11:31:04.240Z,11.000
2023-04-15T11:31:57.036Z,11.000
2023-04-15T11:33:33.849Z,10.900
2023-04-15T11:34:36.888Z,10.800
2023-04-15T11:38:08.903Z,10.600
2023-04-15T11:39:40.476Z,10.500
2023-04-15T11:40:47.481Z,10.400
2023-04-15T11:45:45.325Z,10.200
2023-04-15T11:46:58.489Z,10.250
2023-04-15T11:50:32.681Z,10.300
2023-04-15T11:54:03.525Z,10.300
2023-04-15T11:54:56.463Z,10.300
2023-04-15T11:56:42.049Z,10.400
2023-04-15T12:01:07.708Z,10.400
2023-04-15T12:01:32.333Z,10.300
2023-04-15T12:02:46.750Z,10.300
2023-04-15T12:03:45.845Z,10.300
2023-04-15T12:08:51.832Z,10.400
2023-04-15T12:09:57.526Z,10.250
2023-04-15T12:13:30.180Z,10.400
2023-04-15T12:16:09.863Z,10.300
2023-04-15T12:17:02.315Z,10.300
2023-04-15T12:18:35.612Z,10.500
2023-04-15T12:19:40.331Z,10.500
2023-04-15T12:23:13.404Z,10.500
2023-04-15T12:24:40.468Z,10.500
2023-04-15T12:25:53.076Z,10.500
2023-04-15T12:32:04.508Z,10.800
2023-04-15T12:32:56.088Z,10.800
2023-04-15T12:34:23.887Z,10.700
2023-04-15T12:35:37.185Z,10.700
2023-04-15T12:39:07.624Z,10.700
2023-04-15T12:39:57.070Z,10.700
2023-04-15T12:40:48.655Z,10.800
2023-04-15T12:41:41.998Z,10.800
2023-04-15T12:42:35.687Z,10.800
2023-04-15T12:43:29.097Z,10.800
2023-04-15T12:44:20.580Z,10.700
2023-04-15T12:45:19.487Z,10.700
2023-04-15T12:46:32.530Z,10.800
2023-04-15T12:47:47.852Z,10.800
2023-04-15T12:49:41.322Z,10.900
2023-04-15T12:51:26.413Z,10.800
2023-04-15T12:52:21.446Z,10.800
2023-04-15T12:53:52.429Z,10.800
2023-04-15T12:54:58.575Z,10.800
2023-04-15T12:55:51.362Z,10.900
2023-04-15T12:56:44.575Z,10.900
2023-04-15T12:57:37.331Z,10.900
2023-04-15T12:58:30.345Z,10.900
2023-04-15T12:59:23.604Z,11.000
2023-04-15T13:01:12.560Z,11.000
2023-04-15T13:02:21.559Z,11.000
2023-04-15T13:03:37.274Z,11.000
2023-04-15T13:04:44.161Z,11.000
2023-04-15T13:06:27.638Z,11.000
2023-04-15T13:07:22.717Z,11.000
2023-04-15T13:08:26.757Z,11.000
2023-04-15T13:09:41.507Z,11.000
2023-04-15T13:10:56.000Z,10.900
2023-04-15T13:12:38.733Z,10.900
2023-04-15T13:13:29.593Z,10.900
2023-04-15T13:14:29.035Z,10.800
2023-04-15T13:17:56.890Z,10.800
2023-04-15T13:18:49.224Z,10.800
2023-04-15T13:19:25.820Z,10.800
2023-04-15T13:20:35.868Z,10.800
2023-04-15T13:21:28.457Z,10.800
2023-04-15T13:22:21.007Z,10.800
2023-04-15T13:24:08.416Z,10.800
2023-04-15T13:25:28.885Z,10.850
2023-04-15T13:26:45.894Z,10.800
2023-04-15T13:27:38.569Z,10.800
2023-04-15T13:29:23.860Z,10.700
2023-04-15T13:32:50.408Z,10.700
2023-04-15T13:33:50.641Z,10.700
2023-04-15T13:34:42.791Z,10.600
2023-04-15T13:35:34.639Z,10.600
2023-04-15T13:36:28.386Z,10.600
2023-04-15T13:37:22.760Z,10.600
2023-04-15T13:38:53.501Z,10.600
2023-04-15T13:40:01.744Z,10.600
2023-04-15T13:40:54.363Z,10.600
2023-04-15T13:41:48.342Z,10.600
2023-04-15T13:42:32.614Z,10.600
2023-04-15T13:43:32.117Z,10.600
2023-04-15T13:44:26.386Z,10.600
2023-04-15T13:45:21.937Z,10.600
2023-04-15T13:47:05.845Z,10.500
2023-04-15T13:47:22.519Z,10.500
2023-04-15T13:48:37.477Z,10.450
2023-04-15T13:49:44.426Z,10.400
2023-04-15T13:50:39.570Z,10.500
2023-04-15T13:51:30.321Z,10.500
2023-04-15T13:52:21.642Z,10.500
2023-04-15T13:53:19.699Z,10.500
2023-04-15T13:54:42.940Z,10.500
2023-04-15T13:55:54.908Z,10.500
2023-04-15T13:56:48.196Z,10.500
2023-04-15T13:57:41.701Z,10.500
2023-04-15T13:58:23.259Z,10.500
2023-04-15T13:59:27.283Z,10.400
2023-04-15T14:00:24.090Z,10.500
2023-04-15T14:02:00.287Z,10.500
2023-04-15T14:03:00.600Z,10.500
2023-04-15T14:03:52.211Z,10.500
2023-04-15T14:04:26.181Z,10.500
2023-04-15T14:05:38.689Z,10.500
2023-04-15T14:06:31.794Z,10.400
2023-04-15T14:07:24.033Z,10.400
2023-04-15T14:08:20.745Z,10.500
2023-04-15T14:10:03.209Z,10.400
2023-04-15T14:10:30.224Z,10.400
2023-04-15T14:11:49.549Z,10.500
2023-04-15T14:12:42.509Z,10.400
2023-04-15T14:13:36.504Z,10.400
2023-04-15T14:14:27.149Z,10.500
2023-04-15T14:15:23.746Z,10.500
2023-04-15T14:16:35.130Z,10.500
2023-04-15T14:17:49.960Z,10.500
2023-04-15T14:18:53.801Z,10.500
2023-04-15T14:19:46.693Z,10.500
2023-04-15T14:20:39.647Z,10.400
2023-04-15T14:21:28.941Z,10.400
2023-04-15T14:22:25.262Z,10.400
2023-04-15T14:23:22.070Z,10.400
2023-04-15T14:25:07.290Z,10.400
2023-04-15T14:25:58.206Z,10.400
2023-04-15T14:26:50.403Z,10.400
2023-04-15T14:27:34.165Z,10.300
2023-04-15T14:28:36.404Z,10.300
2023-04-15T14:29:29.125Z,10.300
2023-04-15T14:30:22.407Z,10.200
2023-04-15T14:31:20.227Z,10.200
2023-04-15T14:32:24.168Z,10.300
2023-04-15T14:33:37.944Z,10.300
2023-04-15T14:34:46.919Z,10.300
2023-04-15T14:35:40.696Z,10.200
2023-04-15T14:36:33.990Z,10.200
2023-04-15T14:37:25.649Z,10.200
2023-04-15T14:38:23.988Z,10.200
2023-04-15T14:39:42.869Z,10.200
2023-04-15T14:40:58.329Z,10.200
2023-04-15T14:41:50.979Z,10.100
2023-04-15T14:42:45.148Z,10.100
2023-04-15T14:43:21.985Z,10.100
2023-04-15T14:44:35.196Z,10.100
2023-04-15T14:45:22.951Z,10.100
2023-04-15T14:46:20.772Z,10.100
2023-04-15T14:48:02.581Z,10.100
2023-04-15T14:48:54.837Z,10.100
2023-04-15T14:49:26.826Z,10.100
2023-04-15T14:50:40.487Z,10.100
2023-04-15T14:51:34.586Z,10.100
2023-04-15T14:52:27.458Z,10.100
2023-04-15T14:53:25.291Z,10.100
2023-04-15T14:55:06.386Z,10.100
2023-04-15T14:55:30.273Z,10.100
2023-04-15T14:56:45.581Z,10.100
2023-04-15T14:57:45.587Z,10.100
2023-04-15T14:58:38.831Z,10.100
2023-04-15T14:59:29.685Z,10.100
2023-04-15T15:00:24.550Z,10.100
2023-04-15T15:01:22.412Z,10.100
2023-04-15T15:02:50.858Z,10.100
2023-04-15T15:03:56.186Z,10.100
2023-04-15T15:04:49.654Z,10.100
2023-04-15T15:05:42.192Z,10.100
2023-04-15T15:06:29.338Z,10.100
2023-04-15T15:07:28.585Z,10.200